Terminal Aerodrome Forecast
Issued by NWS Albuquerque, NM

Home | Current Version | Previous Version | Text Only | Print | Product List | Glossary On
Versions: 1 2 3 4 5 6 7 8 9 10 11 12 13
000
FTUS45 KABQ 042327
TAFABQ
TAF
KABQ 042327Z 0500/0524 25010KT P6SM FEW110
     FM050300 12006KT P6SM SKC
     FM051000 VRB05KT P6SM SKC
     FM052000 19011KT P6SM FEW250=

USA.gov is the U.S. government's official web portal to all federal, state and local government web resources and services.